Terminal Aerodrome Forecast
Issued by NWS

Current Version | Previous Version | Text Only | Print | Product List | Glossary Off
Versions: 1 2 3 4 5 6 7 8 9 10 11 12 13 14 15 16 17 18 19 20 21 22 23 24 25

000
FTUS41 KRNK 191357 AAA
TAFLWB
TAF AMD
KLWB 191357Z 1914/2012 00000KT 1SM BR OVC001
     FM191500 00000KT P6SM SCT008
     FM191600 28003KT P6SM SCT060
     FM192100 VRB03KT P6SM BKN050
     FM200900 00000KT 1/4SM FG BKN001=

USA.gov is the U.S. government's official web portal to all federal, state and local government web resources and services.